createdAt,value
2023-05-22T00:00:07.819Z,94.67
2023-05-22T00:02:39.157Z,94.89
2023-05-22T00:05:07.085Z,95.84
2023-05-22T00:07:34.050Z,96.10
2023-05-22T00:10:01.067Z,96.56
2023-05-22T00:12:27.963Z,97.05
2023-05-22T00:15:02.915Z,96.85
2023-05-22T00:17:31.301Z,97.02
2023-05-22T00:20:07.420Z,97.44
2023-05-22T00:22:37.550Z,96.49
2023-05-22T00:25:05.762Z,96.54
2023-05-22T00:27:33.959Z,96.07
2023-05-22T00:30:01.517Z,97.21
2023-05-22T00:32:28.586Z,97.22
2023-05-22T00:34:55.518Z,97.80
2023-05-22T00:37:22.464Z,97.21
2023-05-22T00:39:51.232Z,97.50
2023-05-22T00:42:19.142Z,97.78
2023-05-22T00:44:46.219Z,98.12
2023-05-22T00:47:13.153Z,97.54
2023-05-22T00:49:41.117Z,97.06
2023-05-22T00:52:09.829Z,97.47
2023-05-22T00:54:37.248Z,98.20
2023-05-22T00:57:05.075Z,98.30
2023-05-22T00:59:32.150Z,99.48
2023-05-22T01:01:59.633Z,98.60
2023-05-22T01:04:26.629Z,98.60
2023-05-22T01:06:55.299Z,98.91
2023-05-22T01:09:22.158Z,99.44
2023-05-22T01:12:26.015Z,98.90
2023-05-22T01:14:58.717Z,98.43
2023-05-22T01:17:55.910Z,99.46
2023-05-22T01:20:32.692Z,100.00
2023-05-22T01:23:16.368Z,99.68
2023-05-22T01:26:04.239Z,98.76
2023-05-22T01:29:06.183Z,98.20
2023-05-22T01:31:40.039Z,97.64
2023-05-22T01:34:11.834Z,98.89
2023-05-22T01:36:39.649Z,99.97
2023-05-22T01:39:08.072Z,100.00
2023-05-22T01:41:35.688Z,99.85
2023-05-22T01:44:02.768Z,100.00
2023-05-22T01:46:30.865Z,100.00
2023-05-22T01:48:58.594Z,100.00
2023-05-22T01:51:56.146Z,100.00
2023-05-22T01:54:35.664Z,100.00
2023-05-22T01:57:53.611Z,100.00
2023-05-22T02:00:22.833Z,100.00
2023-05-22T02:02:55.255Z,100.00
2023-05-22T02:05:25.286Z,100.00
2023-05-22T02:07:54.458Z,100.00
2023-05-22T02:10:22.436Z,100.00
2023-05-22T02:12:49.627Z,100.00
2023-05-22T02:15:16.632Z,100.00
2023-05-22T02:17:44.620Z,100.00
2023-05-22T02:20:15.552Z,100.00
2023-05-22T02:22:44.759Z,100.00
2023-05-22T02:25:15.020Z,100.00
2023-05-22T02:27:46.974Z,100.00
2023-05-22T02:30:15.296Z,100.00
2023-05-22T02:32:42.701Z,100.00
2023-05-22T02:35:10.138Z,100.00
2023-05-22T02:37:38.247Z,100.00
2023-05-22T02:40:10.231Z,100.00
2023-05-22T02:42:37.210Z,100.00
2023-05-22T02:45:04.564Z,100.00
2023-05-22T02:47:31.445Z,100.00
2023-05-22T02:49:58.575Z,100.00
2023-05-22T02:52:25.818Z,100.00
2023-05-22T02:54:52.690Z,100.00
2023-05-22T02:57:19.568Z,100.00
2023-05-22T02:59:46.982Z,100.00
2023-05-22T03:02:15.526Z,100.00
2023-05-22T03:04:42.488Z,100.00
2023-05-22T03:07:09.399Z,100.00
2023-05-22T03:09:36.393Z,100.00
2023-05-22T03:12:05.140Z,100.00
2023-05-22T03:14:32.158Z,100.00
2023-05-22T03:16:59.184Z,100.00
2023-05-22T03:19:26.729Z,100.00
2023-05-22T03:21:53.855Z,100.00
2023-05-22T03:24:21.242Z,100.00
2023-05-22T03:26:48.131Z,100.00
2023-05-22T03:29:15.077Z,100.00
2023-05-22T03:31:42.006Z,100.00
2023-05-22T03:34:08.987Z,100.00
2023-05-22T03:36:36.078Z,100.00
2023-05-22T03:39:04.036Z,100.00
2023-05-22T03:41:31.076Z,100.00
2023-05-22T03:43:58.844Z,100.00
2023-05-22T03:46:25.980Z,100.00
2023-05-22T03:48:52.901Z,100.00
2023-05-22T03:51:20.511Z,100.00
2023-05-22T03:53:47.629Z,100.00
2023-05-22T03:56:14.564Z,100.00
2023-05-22T03:58:41.520Z,100.00
2023-05-22T04:01:10.188Z,100.00
2023-05-22T04:03:40.138Z,100.00
2023-05-22T04:06:07.848Z,100.00
2023-05-22T04:08:34.950Z,100.00
2023-05-22T04:11:03.289Z,100.00
2023-05-22T04:13:31.235Z,100.00
2023-05-22T04:15:58.689Z,100.00
2023-05-22T04:18:25.682Z,100.00
2023-05-22T04:20:52.673Z,100.00
2023-05-22T04:23:19.547Z,100.00
2023-05-22T04:25:48.248Z,100.00
2023-05-22T04:28:17.759Z,100.00
2023-05-22T04:30:45.128Z,100.00
2023-05-22T04:33:12.940Z,100.00
2023-05-22T04:35:41.041Z,100.00
2023-05-22T04:38:08.112Z,100.00
2023-05-22T04:40:35.010Z,100.00
2023-05-22T04:43:01.991Z,100.00
2023-05-22T04:45:29.229Z,100.00
2023-05-22T04:47:56.972Z,100.00
2023-05-22T04:50:24.262Z,100.00
2023-05-22T04:52:51.215Z,100.00
2023-05-22T04:55:19.441Z,100.00
2023-05-22T04:57:47.598Z,100.00
2023-05-22T05:00:17.249Z,100.00
2023-05-22T05:02:44.299Z,100.00
2023-05-22T05:05:11.320Z,100.00
2023-05-22T05:07:39.668Z,100.00
2023-05-22T05:10:07.744Z,100.00
2023-05-22T05:12:34.782Z,100.00
2023-05-22T05:15:02.014Z,100.00
2023-05-22T05:17:29.066Z,100.00
2023-05-22T05:19:56.229Z,100.00
2023-05-22T05:22:23.178Z,100.00
2023-05-22T05:24:50.118Z,100.00
2023-05-22T05:27:17.115Z,100.00
2023-05-22T05:29:44.065Z,100.00
2023-05-22T05:32:12.741Z,100.00
2023-05-22T05:34:39.727Z,100.00
2023-05-22T05:37:06.657Z,100.00
2023-05-22T05:39:33.704Z,100.00
2023-05-22T05:42:00.588Z,100.00
2023-05-22T05:44:27.544Z,100.00
2023-05-22T05:46:54.972Z,100.00
2023-05-22T05:49:22.499Z,100.00
2023-05-22T05:51:49.374Z,100.00
2023-05-22T05:54:16.247Z,100.00
2023-05-22T05:56:43.269Z,100.00
2023-05-22T05:59:10.150Z,100.00
2023-05-22T06:01:38.838Z,100.00
2023-05-22T06:04:05.984Z,100.00
2023-05-22T06:06:36.485Z,100.00
2023-05-22T06:09:06.425Z,100.00
2023-05-22T06:11:34.399Z,100.00
2023-05-22T06:14:05.263Z,100.00
2023-05-22T06:16:32.327Z,99.46
2023-05-22T06:19:00.237Z,100.00
2023-05-22T06:21:27.268Z,100.00
2023-05-22T06:23:54.143Z,99.22
2023-05-22T06:26:22.399Z,97.50
2023-05-22T06:28:49.303Z,96.38
2023-05-22T06:31:16.160Z,95.74
2023-05-22T06:33:43.686Z,97.98
2023-05-22T06:36:11.724Z,98.42
2023-05-22T06:38:39.483Z,97.57
2023-05-22T06:41:08.129Z,96.68
2023-05-22T06:43:35.060Z,97.30
2023-05-22T06:46:02.119Z,98.46
2023-05-22T06:48:29.089Z,97.40
2023-05-22T06:50:55.947Z,96.72
2023-05-22T06:53:24.085Z,96.70
2023-05-22T06:55:51.300Z,96.48
2023-05-22T06:58:18.883Z,95.20
2023-05-22T07:00:45.964Z,95.66
2023-05-22T07:03:12.940Z,94.30
2023-05-22T07:05:39.888Z,93.23
2023-05-22T07:08:08.579Z,90.56
2023-05-22T07:10:35.534Z,89.31
2023-05-22T07:13:02.656Z,87.53
2023-05-22T07:15:29.630Z,87.00
2023-05-22T07:17:56.685Z,83.50
2023-05-22T07:20:25.788Z,81.83
2023-05-22T07:22:52.765Z,81.77
2023-05-22T07:25:19.648Z,79.85
2023-05-22T07:27:46.620Z,82.19
2023-05-22T07:30:13.880Z,79.59
2023-05-22T07:32:40.957Z,78.38
2023-05-22T07:35:08.719Z,78.25
2023-05-22T07:37:36.203Z,75.43
2023-05-22T07:40:08.227Z,75.19
2023-05-22T07:42:35.209Z,74.40
2023-05-22T07:45:02.333Z,73.47
2023-05-22T07:47:29.269Z,71.53
2023-05-22T07:49:56.229Z,70.35
2023-05-22T07:52:24.011Z,69.26
2023-05-22T07:54:51.046Z,68.90
2023-05-22T07:57:17.954Z,69.27
2023-05-22T07:59:45.570Z,66.69
2023-05-22T08:02:12.555Z,66.64
2023-05-22T08:04:39.825Z,67.28
2023-05-22T08:07:06.926Z,66.75
2023-05-22T08:09:34.151Z,66.25
2023-05-22T08:12:01.401Z,65.28
2023-05-22T08:14:28.560Z,64.21
2023-05-22T08:16:57.214Z,64.46
2023-05-22T08:19:24.238Z,64.45
2023-05-22T08:21:53.160Z,63.81
2023-05-22T08:24:20.103Z,62.50
2023-05-22T08:26:46.985Z,62.72
2023-05-22T08:29:13.852Z,61.72
2023-05-22T08:31:40.872Z,62.97
2023-05-22T08:34:07.806Z,61.85
2023-05-22T08:36:35.713Z,60.24
2023-05-22T08:39:02.655Z,59.43
2023-05-22T08:41:30.412Z,58.57
2023-05-22T08:43:57.608Z,57.31
2023-05-22T08:46:29.426Z,55.65
2023-05-22T08:48:58.376Z,56.28
2023-05-22T08:51:29.575Z,56.54
2023-05-22T08:53:57.612Z,57.36
2023-05-22T08:56:26.057Z,56.16
2023-05-22T08:58:55.133Z,54.78
2023-05-22T09:01:23.004Z,54.17
2023-05-22T09:03:51.643Z,55.45
2023-05-22T09:06:18.790Z,55.02
2023-05-22T09:08:46.288Z,54.04
2023-05-22T09:11:13.464Z,52.96
2023-05-22T09:13:41.566Z,53.48
2023-05-22T09:16:13.509Z,53.88
2023-05-22T09:18:42.625Z,54.01
2023-05-22T09:21:25.534Z,54.56
2023-05-22T09:24:01.756Z,49.95
2023-05-22T09:26:33.152Z,49.70
2023-05-22T09:29:01.278Z,48.14
2023-05-22T09:31:31.917Z,48.37
2023-05-22T09:33:59.938Z,46.65
2023-05-22T09:36:33.490Z,45.85
2023-05-22T09:39:02.582Z,43.69
2023-05-22T09:41:34.229Z,44.45
2023-05-22T09:44:02.042Z,41.21
2023-05-22T09:46:29.955Z,41.29
2023-05-22T09:48:57.183Z,41.61
2023-05-22T09:51:24.135Z,40.95
2023-05-22T09:53:53.646Z,40.85
2023-05-22T09:56:31.213Z,39.38
2023-05-22T09:59:09.913Z,39.80
2023-05-22T10:01:39.751Z,38.92
2023-05-22T10:04:13.224Z,39.47
2023-05-22T10:06:41.183Z,40.69
2023-05-22T10:09:11.238Z,41.28
2023-05-22T10:11:38.467Z,40.83
2023-05-22T10:14:05.771Z,41.46
2023-05-22T10:16:38.445Z,41.16
2023-05-22T10:19:07.285Z,42.04
2023-05-22T10:21:37.115Z,41.73
2023-05-22T10:24:05.646Z,42.19
2023-05-22T10:26:33.263Z,43.18
2023-05-22T10:29:12.445Z,43.88
2023-05-22T10:32:09.325Z,43.02
2023-05-22T10:34:56.766Z,43.41
2023-05-22T10:37:55.714Z,43.62
2023-05-22T10:40:30.591Z,44.12
2023-05-22T10:43:04.254Z,43.15
2023-05-22T10:45:32.069Z,44.23
2023-05-22T10:48:09.701Z,45.97
2023-05-22T10:50:36.758Z,45.21
2023-05-22T10:53:27.076Z,44.85
2023-05-22T10:56:02.585Z,45.71
2023-05-22T10:58:31.973Z,44.53
2023-05-22T11:01:14.882Z,45.81
2023-05-22T11:04:07.165Z,46.09
2023-05-22T11:06:43.804Z,45.23
2023-05-22T11:09:48.986Z,45.29
2023-05-22T11:12:27.780Z,45.65
2023-05-22T11:15:03.325Z,43.81
2023-05-22T11:17:40.376Z,46.24
2023-05-22T11:20:25.903Z,42.53
2023-05-22T11:23:05.746Z,42.92
2023-05-22T11:25:35.244Z,42.47
2023-05-22T11:28:06.766Z,42.31
2023-05-22T11:30:34.910Z,40.85
2023-05-22T11:33:02.688Z,40.41
2023-05-22T11:35:30.007Z,40.96
2023-05-22T11:37:57.236Z,37.29
2023-05-22T11:40:29.681Z,37.23
2023-05-22T11:42:57.111Z,37.40
2023-05-22T11:45:24.619Z,38.79
2023-05-22T11:47:52.080Z,38.79
2023-05-22T11:52:49.470Z,39.34
2023-05-22T11:55:16.370Z,38.27
2023-05-22T11:57:44.396Z,39.91
2023-05-22T12:00:12.206Z,38.33
2023-05-22T12:02:44.930Z,38.97
2023-05-22T12:05:12.166Z,38.19
2023-05-22T12:07:39.292Z,38.95
2023-05-22T12:10:07.611Z,39.01
2023-05-22T12:12:34.644Z,38.94
2023-05-22T12:15:01.560Z,40.02
2023-05-22T12:17:29.554Z,41.35
2023-05-22T12:19:58.065Z,41.37
2023-05-22T12:22:26.674Z,40.51
2023-05-22T12:24:53.637Z,38.37
2023-05-22T12:27:20.590Z,37.37
2023-05-22T12:29:47.550Z,37.73
2023-05-22T12:32:14.575Z,38.47
2023-05-22T12:34:46.917Z,39.95
2023-05-22T12:37:26.127Z,42.97
2023-05-22T12:40:01.698Z,45.04
2023-05-22T12:42:29.459Z,46.34
2023-05-22T12:44:58.383Z,46.49
2023-05-22T12:47:26.157Z,46.83
2023-05-22T12:49:53.569Z,46.54
2023-05-22T12:52:20.591Z,46.85
2023-05-22T12:54:47.550Z,45.39
2023-05-22T12:57:14.613Z,46.35
2023-05-22T12:59:41.517Z,46.37
2023-05-22T13:02:08.680Z,45.89
2023-05-22T13:04:36.245Z,46.45
2023-05-22T13:07:03.232Z,48.53
2023-05-22T13:09:30.981Z,46.52
2023-05-22T13:11:57.974Z,49.09
2023-05-22T13:15:38.807Z,52.29
2023-05-22T13:18:06.121Z,50.97
2023-05-22T13:20:33.179Z,48.27
2023-05-22T13:23:00.127Z,49.89
2023-05-22T13:25:27.084Z,51.23
2023-05-22T13:27:54.105Z,51.78
2023-05-22T13:30:21.086Z,53.79
2023-05-22T13:32:48.163Z,54.76
2023-05-22T13:35:15.225Z,55.17
2023-05-22T13:37:42.210Z,55.39
2023-05-22T13:40:10.221Z,56.25
2023-05-22T13:42:38.056Z,56.42
2023-05-22T13:45:06.391Z,56.94
2023-05-22T13:47:33.455Z,57.50
2023-05-22T13:50:00.545Z,60.21
2023-05-22T13:52:28.007Z,59.14
2023-05-22T13:54:56.303Z,61.93
2023-05-22T13:57:23.226Z,63.81
2023-05-22T13:59:50.196Z,60.73
2023-05-22T14:02:19.844Z,61.80
2023-05-22T14:04:48.792Z,58.27
2023-05-22T14:07:16.152Z,57.93
2023-05-22T14:09:43.204Z,57.56
2023-05-22T14:12:10.196Z,53.49
2023-05-22T14:14:37.074Z,55.48
2023-05-22T14:17:08.641Z,55.61
2023-05-22T14:19:36.418Z,56.08
2023-05-22T14:22:03.934Z,53.27
2023-05-22T14:24:30.942Z,52.90
2023-05-22T14:26:58.381Z,51.45
2023-05-22T14:29:26.111Z,52.40
2023-05-22T14:32:04.375Z,52.64
2023-05-22T14:34:31.877Z,52.55
2023-05-22T14:36:58.954Z,53.93
2023-05-22T14:39:26.619Z,54.19
2023-05-22T14:41:54.293Z,55.50
2023-05-22T14:44:22.798Z,54.79
2023-05-22T14:46:51.347Z,56.98
2023-05-22T14:49:18.393Z,57.45
2023-05-22T14:51:48.238Z,57.37
2023-05-22T14:54:19.241Z,58.90
2023-05-22T14:56:46.853Z,61.47
2023-05-22T14:59:14.437Z,63.10
2023-05-22T15:01:41.724Z,62.55
2023-05-22T15:04:09.220Z,61.92
2023-05-22T15:06:36.400Z,61.69
2023-05-22T15:09:03.693Z,62.11
2023-05-22T15:11:30.641Z,62.10
2023-05-22T15:13:59.379Z,60.52
2023-05-22T15:16:27.934Z,58.99
2023-05-22T15:18:55.442Z,56.20
2023-05-22T15:21:22.847Z,55.41
2023-05-22T15:23:49.943Z,54.63
2023-05-22T15:26:16.917Z,54.67
2023-05-22T15:28:43.915Z,57.22
2023-05-22T15:31:10.984Z,55.98
2023-05-22T15:33:39.283Z,56.27
2023-05-22T15:36:07.133Z,57.27
2023-05-22T15:38:34.293Z,57.39
2023-05-22T15:41:01.228Z,57.09
2023-05-22T15:43:28.227Z,55.93
2023-05-22T15:45:55.340Z,56.68
2023-05-22T15:48:22.283Z,56.31
2023-05-22T15:50:49.174Z,55.43
2023-05-22T15:53:16.180Z,54.74
2023-05-22T15:55:43.093Z,54.28
2023-05-22T15:58:10.118Z,54.75
2023-05-22T16:00:41.326Z,55.56
2023-05-22T16:03:09.143Z,55.47
2023-05-22T16:05:39.002Z,53.63
2023-05-22T16:08:07.753Z,51.63
2023-05-22T16:10:34.775Z,50.61
2023-05-22T16:13:05.270Z,50.36
2023-05-22T16:15:32.542Z,49.11
2023-05-22T16:17:59.524Z,47.14
2023-05-22T16:20:26.623Z,47.80
2023-05-22T16:22:53.658Z,48.40
2023-05-22T16:25:20.668Z,48.62
2023-05-22T16:27:47.685Z,48.71
2023-05-22T16:30:19.154Z,49.62
2023-05-22T16:32:47.052Z,51.04
2023-05-22T16:35:16.769Z,50.90
2023-05-22T16:37:43.747Z,51.79
2023-05-22T16:40:11.266Z,53.03
2023-05-22T16:42:38.548Z,53.71
2023-05-22T16:45:06.784Z,54.14
2023-05-22T16:47:33.858Z,55.33
2023-05-22T16:50:01.069Z,55.45
2023-05-22T16:52:28.536Z,56.53
2023-05-22T16:54:55.531Z,57.05
2023-05-22T16:57:22.603Z,57.15
2023-05-22T16:59:50.653Z,57.36
2023-05-22T17:02:17.833Z,57.97
2023-05-22T17:04:44.777Z,57.75
2023-05-22T17:07:11.698Z,58.18
2023-05-22T17:09:38.662Z,57.79
2023-05-22T17:12:06.235Z,57.85
2023-05-22T17:14:34.549Z,58.15
2023-05-22T17:17:01.478Z,58.68
2023-05-22T17:19:28.454Z,59.23
2023-05-22T17:21:56.845Z,59.67
2023-05-22T17:24:23.849Z,60.44
2023-05-22T17:26:50.789Z,60.26
2023-05-22T17:29:17.767Z,60.39
2023-05-22T17:31:44.816Z,60.30
2023-05-22T17:34:11.752Z,61.29
2023-05-22T17:36:38.645Z,62.13
2023-05-22T17:39:05.691Z,61.99
2023-05-22T17:41:32.737Z,63.31
2023-05-22T17:44:01.600Z,63.55
2023-05-22T17:46:28.627Z,63.43
2023-05-22T17:48:55.651Z,63.77
2023-05-22T17:51:22.933Z,65.04
2023-05-22T17:53:50.338Z,65.87
2023-05-22T17:56:17.439Z,66.47
2023-05-22T17:58:44.279Z,66.62
2023-05-22T18:01:11.229Z,67.01
2023-05-22T18:03:38.206Z,67.76
2023-05-22T18:06:05.719Z,68.80
2023-05-22T18:08:32.632Z,68.18
2023-05-22T18:10:59.532Z,68.95
2023-05-22T18:13:26.917Z,69.84
2023-05-22T18:15:54.429Z,72.09
2023-05-22T18:18:22.797Z,73.43
2023-05-22T18:20:50.173Z,73.06
2023-05-22T18:23:17.155Z,73.92
2023-05-22T18:25:44.026Z,75.39
2023-05-22T18:28:10.957Z,75.21
2023-05-22T18:30:38.047Z,75.41
2023-05-22T18:33:05.071Z,75.61
2023-05-22T18:35:32.064Z,76.33
2023-05-22T18:38:00.372Z,76.11
2023-05-22T18:40:27.299Z,75.66
2023-05-22T18:42:54.167Z,76.15
2023-05-22T18:45:21.132Z,77.23
2023-05-22T18:47:48.108Z,78.00
2023-05-22T18:50:16.274Z,78.20
2023-05-22T18:52:43.166Z,79.32
2023-05-22T18:55:10.557Z,79.28
2023-05-22T18:57:37.429Z,79.65
2023-05-22T19:00:05.451Z,80.79
2023-05-22T19:02:32.385Z,82.00
2023-05-22T19:04:59.434Z,82.41
2023-05-22T19:07:26.466Z,81.83
2023-05-22T19:09:53.395Z,83.44
2023-05-22T19:12:20.327Z,84.14
2023-05-22T19:14:48.548Z,84.67
2023-05-22T19:17:16.172Z,85.60
2023-05-22T19:19:43.109Z,86.31
2023-05-22T19:22:09.960Z,88.09
2023-05-22T19:24:36.939Z,89.37
2023-05-22T19:27:04.290Z,91.01
2023-05-22T19:29:31.140Z,93.73
2023-05-22T19:31:58.016Z,91.89
2023-05-22T19:34:24.855Z,92.35
2023-05-22T19:36:52.382Z,91.77
2023-05-22T19:39:19.258Z,90.75
2023-05-22T19:41:47.594Z,91.81
2023-05-22T19:44:14.449Z,91.88
2023-05-22T19:46:41.380Z,91.83
2023-05-22T19:49:08.373Z,93.56
2023-05-22T19:51:35.284Z,93.99
2023-05-22T19:54:02.154Z,95.09
2023-05-22T19:56:30.380Z,95.25
2023-05-22T19:58:57.385Z,94.89
2023-05-22T20:01:24.298Z,95.83
2023-05-22T20:03:51.342Z,95.65
2023-05-22T20:06:18.826Z,95.75
2023-05-22T20:08:46.278Z,95.78
2023-05-22T20:11:13.184Z,96.99
2023-05-22T20:13:40.202Z,97.23
2023-05-22T20:16:12.017Z,96.42
2023-05-22T20:18:41.278Z,95.97
2023-05-22T20:21:08.404Z,95.38
2023-05-22T20:23:35.316Z,95.52
2023-05-22T20:26:02.167Z,97.19
2023-05-22T20:28:29.080Z,97.35
2023-05-22T20:30:56.082Z,96.60
2023-05-22T20:33:23.409Z,97.14
2023-05-22T20:35:52.818Z,98.56
2023-05-22T20:38:20.201Z,99.68
2023-05-22T20:40:47.795Z,99.49
2023-05-22T20:43:14.942Z,99.18
2023-05-22T20:45:46.012Z,100.00
2023-05-22T20:48:13.647Z,100.00
2023-05-22T20:50:42.281Z,100.00
2023-05-22T20:53:09.251Z,100.00
2023-05-22T20:55:36.362Z,99.88
2023-05-22T20:58:03.243Z,100.00
2023-05-22T21:00:30.128Z,100.00
2023-05-22T21:02:58.409Z,100.00
2023-05-22T21:05:25.888Z,100.00
2023-05-22T21:07:52.784Z,100.00
2023-05-22T21:10:19.641Z,100.00
2023-05-22T21:12:46.633Z,100.00
2023-05-22T21:15:13.530Z,100.00
2023-05-22T21:17:40.551Z,100.00
2023-05-22T21:20:08.321Z,100.00
2023-05-22T21:22:35.230Z,100.00
2023-05-22T21:25:02.098Z,100.00
2023-05-22T21:27:28.983Z,100.00
2023-05-22T21:29:55.862Z,100.00
2023-05-22T21:32:22.752Z,100.00
2023-05-22T21:34:49.668Z,100.00
2023-05-22T21:37:16.523Z,100.00
2023-05-22T21:39:43.389Z,100.00
2023-05-22T21:42:10.464Z,100.00
2023-05-22T21:44:37.725Z,100.00
2023-05-22T21:47:04.873Z,100.00
2023-05-22T21:49:31.854Z,100.00
2023-05-22T21:51:59.075Z,100.00
2023-05-22T21:54:25.946Z,100.00
2023-05-22T21:56:52.832Z,100.00
2023-05-22T21:59:19.721Z,100.00
2023-05-22T22:01:46.626Z,100.00
2023-05-22T22:04:13.556Z,100.00
2023-05-22T22:06:40.490Z,100.00
2023-05-22T22:09:07.514Z,100.00
2023-05-22T22:11:34.381Z,100.00
2023-05-22T22:14:01.287Z,100.00
2023-05-22T22:16:28.725Z,100.00
2023-05-22T22:18:56.175Z,100.00
2023-05-22T22:21:23.214Z,100.00
2023-05-22T22:23:50.073Z,100.00
2023-05-22T22:26:17.267Z,100.00
2023-05-22T22:28:44.107Z,100.00
2023-05-22T22:31:11.471Z,100.00
2023-05-22T22:33:38.331Z,100.00
2023-05-22T22:36:05.605Z,100.00
2023-05-22T22:38:33.174Z,100.00
2023-05-22T22:41:00.835Z,100.00
2023-05-22T22:43:27.686Z,100.00
2023-05-22T22:45:56.026Z,100.00
2023-05-22T22:48:23.088Z,100.00
2023-05-22T22:50:50.308Z,100.00
2023-05-22T22:53:17.157Z,100.00
2023-05-22T22:55:44.554Z,100.00
2023-05-22T22:58:11.476Z,100.00
2023-05-22T23:00:38.553Z,100.00
2023-05-22T23:03:05.487Z,100.00
2023-05-22T23:05:32.509Z,100.00
2023-05-22T23:08:02.253Z,100.00
2023-05-22T23:10:29.307Z,100.00
2023-05-22T23:12:56.347Z,100.00
2023-05-22T23:15:23.406Z,100.00
2023-05-22T23:17:52.036Z,100.00
2023-05-22T23:20:19.127Z,100.00
2023-05-22T23:22:46.031Z,100.00
2023-05-22T23:25:12.873Z,100.00
2023-05-22T23:27:39.716Z,100.00
2023-05-22T23:30:08.275Z,100.00
2023-05-22T23:32:35.243Z,100.00
2023-05-22T23:35:02.113Z,100.00
2023-05-22T23:37:28.979Z,100.00
2023-05-22T23:39:55.865Z,100.00
2023-05-22T23:42:22.797Z,100.00
2023-05-22T23:44:49.728Z,100.00
2023-05-22T23:47:18.185Z,100.00
2023-05-22T23:49:45.754Z,100.00
2023-05-22T23:52:13.311Z,100.00
2023-05-22T23:54:40.156Z,100.00
2023-05-22T23:57:07.270Z,100.00
2023-05-22T23:59:34.145Z,100.00
